Time;durP1;ratioP1;P1;durP2;ratioP2;P2;SDS_P1;SDS_P2;PMS_P1;PMS_P2;Temp;Humidity;BMP_temperature;BMP_pressure;BME280_temperature;BME280_humidity;BME280_pressure;Samples;Min_cycle;Max_cycle;Signal;HPM_P1;HPM_P2
2022/11/12 00:00:40;;;;;;;18.83;11.30;;;7.90;99.90;;;;;;4918117;29;20138;-63
2022/11/12 00:03:06;;;;;;;19.02;10.98;;;8.10;99.90;;;;;;4901507;29;20059;-63
2022/11/12 00:05:32;;;;;;;17.67;10.48;;;7.70;99.90;;;;;;4918535;29;20036;-63
2022/11/12 00:07:59;;;;;;;16.33;10.98;;;7.70;99.90;;;;;;4918008;29;20044;-63
2022/11/12 00:10:25;;;;;;;19.17;11.10;;;7.70;99.90;;;;;;4901569;29;20564;-63
2022/11/12 00:12:51;;;;;;;19.15;10.75;;;7.60;99.90;;;;;;4899705;29;20064;-63
2022/11/12 00:15:17;;;;;;;17.50;10.10;;;7.70;99.90;;;;;;4919042;29;20063;-63
2022/11/12 00:17:42;;;;;;;18.00;11.00;;;7.70;99.90;;;;;;4917797;29;20079;-63
2022/11/12 00:20:09;;;;;;;18.63;12.00;;;7.80;99.90;;;;;;4918714;29;20036;-63
2022/11/12 00:22:34;;;;;;;16.88;11.90;;;7.60;99.90;;;;;;4918517;29;20055;-63
2022/11/12 00:25:01;;;;;;;20.20;11.48;;;7.60;99.90;;;;;;4917902;29;20052;-63
2022/11/12 00:27:26;;;;;;;16.80;10.30;;;7.70;99.90;;;;;;4917752;29;20055;-63
2022/11/12 00:29:52;;;;;;;18.67;11.18;;;7.60;99.90;;;;;;4918447;29;20071;-64
2022/11/12 00:32:18;;;;;;;16.98;10.40;;;7.40;99.90;;;;;;4903598;29;20048;-64
2022/11/12 00:34:44;;;;;;;18.90;11.57;;;7.60;99.90;;;;;;4902754;29;20052;-64
2022/11/12 00:37:10;;;;;;;20.00;11.40;;;7.70;99.90;;;;;;4922400;29;20083;-64
2022/11/12 00:39:36;;;;;;;21.00;11.13;;;7.30;99.90;;;;;;4904599;29;20044;-63
2022/11/12 00:42:02;;;;;;;19.15;11.63;;;7.60;99.90;;;;;;4888747;29;20059;-64
2022/11/12 00:44:28;;;;;;;20.17;11.35;;;7.60;99.90;;;;;;4922117;29;20068;-64
2022/11/12 00:46:55;;;;;;;22.73;11.82;;;7.60;99.90;;;;;;4921531;29;20117;-64
2022/11/12 00:49:21;;;;;;;18.27;11.63;;;7.50;99.90;;;;;;4922544;29;20150;-64
2022/11/12 00:51:47;;;;;;;18.95;11.68;;;7.60;99.90;;;;;;4921417;29;20044;-64
2022/11/12 00:54:13;;;;;;;16.65;11.00;;;7.60;99.90;;;;;;4925713;29;20059;-64
2022/11/12 00:56:39;;;;;;;16.92;11.05;;;7.30;99.90;;;;;;4925088;29;20041;-64
2022/11/12 00:59:05;;;;;;;17.98;11.27;;;7.50;99.90;;;;;;4906572;29;20052;-64
2022/11/12 01:01:30;;;;;;;19.05;12.38;;;7.50;99.90;;;;;;4906830;29;20067;-64
2022/11/12 01:03:58;;;;;;;18.10;11.40;;;7.50;99.90;;;;;;4905692;29;20135;-64
2022/11/12 01:06:24;;;;;;;16.88;11.15;;;7.30;99.90;;;;;;4907093;29;20442;-64
2022/11/12 01:08:50;;;;;;;19.30;11.32;;;7.30;99.90;;;;;;4905633;29;20045;-63
2022/11/12 01:11:21;;;;;;;22.95;12.48;;;7.40;99.90;;;;;;4906849;29;20100;-65
2022/11/12 01:14:02;;;;;;;16.10;10.38;;;7.40;99.90;;;;;;4905960;29;20135;-64
2022/11/12 01:16:33;;;;;;;16.42;10.90;;;7.40;99.90;;;;;;4905777;29;20528;-64
2022/11/12 01:19:00;;;;;;;20.55;11.13;;;7.30;99.90;;;;;;4906647;29;20120;-64
2022/11/12 01:21:29;;;;;;;16.85;10.77;;;7.30;99.90;;;;;;4905466;29;20049;-64
2022/11/12 01:23:57;;;;;;;20.38;11.10;;;7.60;99.90;;;;;;4906611;29;20527;-64
2022/11/12 01:26:23;;;;;;;17.35;11.18;;;7.50;99.90;;;;;;4905631;29;20569;-63
2022/11/12 01:28:49;;;;;;;19.92;11.75;;;7.30;99.90;;;;;;4906210;29;20096;-64
2022/11/12 01:31:21;;;;;;;17.88;11.52;;;7.30;99.90;;;;;;4889246;29;20079;-64
2022/11/12 01:33:51;;;;;;;19.52;11.50;;;7.30;99.90;;;;;;4905449;29;20083;-63
2022/11/12 01:36:17;;;;;;;16.80;11.52;;;7.30;99.90;;;;;;4906378;29;20187;-64
2022/11/12 01:38:44;;;;;;;19.10;12.13;;;7.30;99.90;;;;;;4905198;29;20040;-64
2022/11/12 01:41:12;;;;;;;17.10;11.30;;;7.20;99.90;;;;;;4906180;29;20568;-64
2022/11/12 01:43:38;;;;;;;16.98;11.60;;;7.40;99.90;;;;;;4905399;29;20086;-64
2022/11/12 01:46:21;;;;;;;19.55;11.75;;;7.30;99.90;;;;;;4905878;29;20049;-64
2022/11/12 01:48:52;;;;;;;;;;;7.30;99.90;;;;;;4906393;29;20060;-64
2022/11/12 01:51:20;;;;;;;18.88;12.40;;;7.30;99.90;;;;;;4904708;29;20364;-63
2022/11/12 01:53:50;;;;;;;18.13;11.68;;;7.20;99.90;;;;;;4906407;29;20048;-64
2022/11/12 01:56:17;;;;;;;18.30;11.73;;;7.10;99.90;;;;;;4888021;29;20127;-64
2022/11/12 01:58:46;;;;;;;19.90;11.70;;;7.20;99.90;;;;;;4904761;29;20037;-64
2022/11/12 02:01:11;;;;;;;19.00;11.60;;;7.20;99.90;;;;;;4924174;29;20047;-64
2022/11/12 02:03:37;;;;;;;17.77;11.98;;;7.30;99.90;;;;;;4906579;29;20683;-62
2022/11/12 02:06:10;;;;;;;16.80;11.68;;;7.20;99.90;;;;;;4924455;29;20469;-64
2022/11/12 02:08:37;;;;;;;17.58;12.13;;;7.10;99.90;;;;;;4923419;29;20048;-64
2022/11/12 02:11:13;;;;;;;17.95;12.43;;;7.30;99.90;;;;;;4924915;29;20051;-64
2022/11/12 02:13:59;;;;;;;16.67;11.77;;;7.20;99.90;;;;;;4923758;29;20051;-64
2022/11/12 02:16:45;;;;;;;17.02;11.50;;;7.30;99.90;;;;;;4923705;29;20059;-62
2022/11/12 02:19:14;;;;;;;19.85;12.15;;;7.40;99.90;;;;;;4924596;29;20064;-64
2022/11/12 02:21:40;;;;;;;19.23;11.73;;;7.20;99.90;;;;;;4923190;29;20052;-63
2022/11/12 02:24:12;;;;;;;20.73;12.20;;;7.10;99.90;;;;;;4924567;29;20540;-64
2022/11/12 02:26:41;;;;;;;20.15;12.05;;;7.10;99.90;;;;;;4906802;29;20056;-64
2022/11/12 02:29:07;;;;;;;19.55;12.15;;;7.30;99.90;;;;;;4923717;29;20044;-64
2022/11/12 02:31:32;;;;;;;18.65;12.00;;;7.20;99.90;;;;;;4924053;29;20066;-64
2022/11/12 02:33:59;;;;;;;18.73;12.07;;;7.30;99.90;;;;;;4906173;29;20413;-64
2022/11/12 02:36:26;;;;;;;17.63;11.77;;;7.20;99.90;;;;;;4924195;29;20044;-64
2022/11/12 02:38:51;;;;;;;18.75;11.95;;;7.20;99.90;;;;;;4923027;29;20043;-64
2022/11/12 02:41:17;;;;;;;18.15;12.02;;;7.20;99.90;;;;;;4923747;29;20378;-65
2022/11/12 02:43:43;;;;;;;21.17;13.02;;;7.10;99.90;;;;;;4923250;29;20114;-63
2022/11/12 02:46:09;;;;;;;20.73;12.38;;;7.30;99.90;;;;;;4923328;29;20044;-61
2022/11/12 02:48:35;;;;;;;19.05;12.63;;;7.10;99.90;;;;;;4923470;29;20478;-65
2022/11/12 02:51:01;;;;;;;18.42;13.27;;;7.20;99.90;;;;;;4922933;29;20110;-61
2022/11/12 02:53:26;;;;;;;18.05;12.68;;;7.10;99.90;;;;;;4923786;29;20103;-62
2022/11/12 02:55:52;;;;;;;18.42;12.70;;;7.00;99.90;;;;;;4905570;29;20044;-64
2022/11/12 02:58:18;;;;;;;17.25;11.68;;;7.00;99.90;;;;;;4911304;29;20055;-61
2022/11/12 03:00:43;;;;;;;18.98;12.07;;;7.10;99.90;;;;;;4886993;29;20063;-62
2022/11/12 03:03:09;;;;;;;20.35;12.32;;;7.10;99.90;;;;;;4904444;29;20069;-63
2022/11/12 03:05:35;;;;;;;18.65;12.70;;;7.00;99.90;;;;;;4904358;29;20478;-63
2022/11/12 03:08:04;;;;;;;19.30;12.40;;;6.90;99.90;;;;;;4903738;29;20080;-63
2022/11/12 03:10:29;;;;;;;17.63;12.95;;;7.00;99.90;;;;;;4904664;29;20060;-62
2022/11/12 03:12:57;;;;;;;21.00;13.02;;;7.00;99.90;;;;;;4903130;29;20512;-61
2022/11/12 03:15:23;;;;;;;20.30;12.75;;;6.80;99.90;;;;;;4904206;29;20072;-65
2022/11/12 03:17:49;;;;;;;21.48;12.85;;;6.80;99.90;;;;;;4903422;29;20052;-62
2022/11/12 03:20:15;;;;;;;18.15;12.63;;;6.90;99.90;;;;;;4904307;29;20041;-63
2022/11/12 03:22:41;;;;;;;18.40;13.18;;;6.70;99.90;;;;;;4903728;29;20048;-63
2022/11/12 03:25:07;;;;;;;20.20;12.63;;;6.90;99.90;;;;;;4903511;29;20064;-63
2022/11/12 03:27:33;;;;;;;19.83;13.13;;;6.90;99.90;;;;;;4904104;29;20041;-63
2022/11/12 03:29:59;;;;;;;17.52;12.80;;;6.90;99.90;;;;;;4903000;29;20040;-63
2022/11/12 03:32:25;;;;;;;20.67;13.48;;;6.90;99.90;;;;;;4904580;29;20052;-63
2022/11/12 03:34:50;;;;;;;18.00;13.57;;;6.80;99.90;;;;;;4903346;29;20468;-63
2022/11/12 03:37:16;;;;;;;18.90;13.40;;;6.70;99.90;;;;;;4903890;29;20052;-62
2022/11/12 03:39:41;;;;;;;21.65;13.85;;;6.80;99.90;;;;;;4903858;29;20044;-64
2022/11/12 03:42:08;;;;;;;19.33;13.00;;;6.60;99.90;;;;;;4870578;29;20056;-64
2022/11/12 03:44:34;;;;;;;22.65;14.07;;;6.60;99.90;;;;;;4887243;29;20092;-63
2022/11/12 03:47:00;;;;;;;18.50;12.55;;;6.60;99.90;;;;;;4885893;29;20044;-63
2022/11/12 03:49:25;;;;;;;20.15;13.60;;;6.60;99.90;;;;;;4904126;29;20041;-63
2022/11/12 03:51:51;;;;;;;20.00;14.20;;;6.60;99.90;;;;;;4902663;29;20326;-64
2022/11/12 03:54:17;;;;;;;18.25;12.90;;;6.50;99.90;;;;;;4903670;29;20064;-62
2022/11/12 03:56:42;;;;;;;18.48;13.18;;;6.70;99.90;;;;;;4903473;29;20059;-63
2022/11/12 03:59:09;;;;;;;18.52;12.77;;;6.90;99.90;;;;;;4922082;29;20040;-62
2022/11/12 04:01:34;;;;;;;18.10;12.93;;;6.80;99.90;;;;;;4922447;29;20059;-64
2022/11/12 04:04:00;;;;;;;21.20;13.30;;;6.70;99.90;;;;;;4921757;29;20124;-63
2022/11/12 04:09:10;;;;;;;20.38;13.48;;;6.70;99.90;;;;;;4904414;29;20059;-63
2022/11/12 04:11:35;;;;;;;22.95;14.15;;;6.50;99.90;;;;;;4922093;29;20048;-63
2022/11/12 04:14:01;;;;;;;19.17;14.07;;;6.80;99.90;;;;;;4922154;29;20044;-63
2022/11/12 04:22:04;;;;;;;18.00;12.35;;;6.60;99.90;;;;;;4921531;29;20111;-63
2022/11/12 04:27:18;;;;;;;20.88;13.23;;;6.70;99.90;;;;;;4924030;29;20420;-63
2022/11/12 04:32:31;;;;;;;19.98;13.32;;;6.60;99.90;;;;;;4906337;29;20071;-63
2022/11/12 04:34:57;;;;;;;21.80;14.15;;;6.60;99.90;;;;;;4906355;29;20049;-63
2022/11/12 04:37:25;;;;;;;19.77;14.60;;;6.70;99.90;;;;;;4906957;29;20064;-63
2022/11/12 04:39:51;;;;;;;20.48;14.38;;;6.70;99.90;;;;;;4905464;29;20516;-63
2022/11/12 04:45:03;;;;;;;20.20;13.40;;;6.60;99.90;;;;;;4905873;29;20067;-63
2022/11/12 04:47:37;;;;;;;17.75;12.43;;;6.60;99.90;;;;;;4906207;29;20080;-63
2022/11/12 04:50:06;;;;;;;19.77;13.57;;;6.70;99.90;;;;;;4906981;29;20085;-63
2022/11/12 04:52:32;;;;;;;20.20;13.75;;;6.80;99.90;;;;;;4906683;29;20060;-63
2022/11/12 04:54:58;;;;;;;17.63;12.75;;;6.80;99.90;;;;;;4904559;29;20049;-63
2022/11/12 04:57:24;;;;;;;18.80;13.68;;;6.70;99.90;;;;;;4906513;29;20044;-63
2022/11/12 04:59:50;;;;;;;17.92;12.93;;;6.70;99.90;;;;;;4905863;29;20128;-63
2022/11/12 05:02:16;;;;;;;19.98;13.90;;;6.80;99.90;;;;;;4907406;29;20056;-63
2022/11/12 05:04:43;;;;;;;18.60;13.00;;;6.80;99.90;;;;;;4905648;29;20048;-63
2022/11/12 05:07:08;;;;;;;18.42;13.48;;;6.90;99.90;;;;;;4906486;29;20047;-64
2022/11/12 05:09:34;;;;;;;19.10;13.00;;;6.70;99.90;;;;;;4906333;29;20044;-63
2022/11/12 05:12:00;;;;;;;19.40;14.10;;;6.90;99.90;;;;;;4905640;29;20049;-62
2022/11/12 05:14:26;;;;;;;19.55;14.80;;;6.90;99.90;;;;;;4906455;29;20095;-62
2022/11/12 05:16:52;;;;;;;18.88;13.35;;;6.80;99.90;;;;;;4905805;29;20048;-63
2022/11/12 05:19:18;;;;;;;20.60;13.57;;;6.90;99.90;;;;;;4906853;29;20072;-64
2022/11/12 05:24:28;;;;;;;19.48;14.13;;;7.00;99.90;;;;;;4906345;29;20053;-63
2022/11/12 05:26:54;;;;;;;21.75;16.58;;;7.00;99.90;;;;;;4906381;29;20037;-63
2022/11/12 05:29:20;;;;;;;22.70;15.20;;;6.80;99.90;;;;;;4905496;29;20053;-62
2022/11/12 05:31:45;;;;;;;20.77;14.63;;;6.80;99.90;;;;;;4873646;29;20132;-63
2022/11/12 05:34:11;;;;;;;23.42;14.90;;;6.90;99.90;;;;;;4904850;29;20080;-63
2022/11/12 05:36:37;;;;;;;29.95;16.88;;;6.90;99.90;;;;;;4906687;29;20052;-63
2022/11/12 05:39:03;;;;;;;36.72;16.58;;;6.90;99.90;;;;;;4918269;29;20048;-63
2022/11/12 05:41:29;;;;;;;29.45;17.40;;;6.90;99.90;;;;;;4924167;29;20504;-63
2022/11/12 05:43:55;;;;;;;32.55;17.08;;;7.00;99.90;;;;;;4924538;29;20052;-62
2022/11/12 05:46:21;;;;;;;44.67;16.70;;;6.90;99.90;;;;;;4924148;29;20079;-63
2022/11/12 05:48:46;;;;;;;37.15;18.40;;;7.10;99.90;;;;;;4924633;29;20108;-63
2022/11/12 05:51:13;;;;;;;35.35;16.38;;;7.10;99.90;;;;;;4924129;29;20036;-63
2022/11/12 05:53:39;;;;;;;38.08;18.85;;;7.00;99.90;;;;;;4925195;29;20063;-63
2022/11/12 05:56:06;;;;;;;39.53;18.92;;;7.20;99.90;;;;;;4906781;29;20127;-63
2022/11/12 05:58:32;;;;;;;48.67;20.55;;;7.00;99.90;;;;;;4892640;29;20478;-63
2022/11/12 06:00:58;;;;;;;59.20;20.60;;;6.80;99.90;;;;;;4905476;29;20040;-63
2022/11/12 06:03:25;;;;;;;44.03;19.08;;;6.80;99.90;;;;;;4905216;29;20045;-63
2022/11/12 06:05:51;;;;;;;36.30;17.38;;;6.90;99.90;;;;;;4905641;29;20041;-64
2022/11/12 06:08:17;;;;;;;49.50;20.15;;;7.00;99.90;;;;;;4904569;29;20048;-63
2022/11/12 06:10:48;;;;;;;36.30;19.90;;;7.60;99.90;;;;;;4906070;29;20056;-62
2022/11/12 06:13:13;;;;;;;43.55;20.05;;;7.20;99.90;;;;;;4904545;29;20414;-63
2022/11/12 06:15:39;;;;;;;45.85;20.20;;;7.20;99.90;;;;;;4888776;29;20044;-63
2022/11/12 06:18:05;;;;;;;42.95;21.23;;;7.00;99.90;;;;;;4888513;29;20040;-64
2022/11/12 06:20:31;;;;;;;49.05;21.20;;;7.10;99.90;;;;;;4905306;29;20075;-63
2022/11/12 06:22:56;;;;;;;40.60;19.85;;;7.20;99.90;;;;;;4905606;29;20522;-62
2022/11/12 06:25:22;;;;;;;63.78;21.92;;;7.20;99.90;;;;;;4904251;29;20393;-62
2022/11/12 06:27:48;;;;;;;47.88;22.20;;;7.20;99.90;;;;;;4905785;29;20091;-62
2022/11/12 06:30:13;;;;;;;46.05;22.45;;;7.50;99.90;;;;;;4904142;29;20100;-61
2022/11/12 06:32:39;;;;;;;43.72;21.90;;;7.40;99.90;;;;;;4905703;29;20048;-63
2022/11/12 06:35:05;;;;;;;52.63;22.15;;;7.20;99.90;;;;;;4904388;29;20128;-63
2022/11/12 06:37:31;;;;;;;53.22;23.67;;;7.20;99.90;;;;;;4904945;29;20099;-64
2022/11/12 06:39:57;;;;;;;64.18;26.55;;;7.20;99.90;;;;;;4904688;29;20156;-63
2022/11/12 06:42:23;;;;;;;46.35;24.30;;;7.40;99.90;;;;;;4904057;29;20420;-63
2022/11/12 06:44:48;;;;;;;66.18;25.70;;;7.30;99.90;;;;;;4904917;29;20052;-63
2022/11/12 06:47:14;;;;;;;58.50;25.85;;;7.10;99.90;;;;;;4900150;29;20112;-64
2022/11/12 06:49:39;;;;;;;54.30;24.80;;;7.10;99.90;;;;;;4901402;29;20056;-63
2022/11/12 06:52:05;;;;;;;66.00;26.55;;;7.10;99.90;;;;;;4883407;29;20458;-63
2022/11/12 06:54:31;;;;;;;73.88;24.45;;;7.40;99.90;;;;;;4900986;29;20041;-64
2022/11/12 06:56:56;;;;;;;49.58;22.90;;;7.40;99.90;;;;;;4903101;29;20127;-64
2022/11/12 06:59:22;;;;;;;73.57;22.75;;;7.30;99.90;;;;;;4902026;29;20040;-64
2022/11/12 07:01:48;;;;;;;78.10;22.90;;;7.30;99.90;;;;;;4919671;29;20458;-64
2022/11/12 07:04:13;;;;;;;64.85;23.02;;;7.20;99.90;;;;;;4918238;29;20104;-63
2022/11/12 07:06:39;;;;;;;91.53;22.90;;;7.50;99.90;;;;;;4920006;29;20066;-64
2022/11/12 07:09:05;;;;;;;70.53;22.48;;;7.30;99.90;;;;;;4918727;29;20055;-63
2022/11/12 07:11:38;;;;;;;60.30;20.50;;;7.40;99.90;;;;;;5088548;27;20382;-44
2022/11/12 07:14:06;;;;;;;60.53;20.67;;;7.40;99.90;;;;;;5088479;28;20121;-45
2022/11/12 07:16:33;;;;;;;44.92;20.63;;;7.20;99.90;;;;;;5070412;28;20072;-48
2022/11/12 07:18:58;;;;;;;48.08;21.17;;;7.10;99.90;;;;;;5088842;28;20104;-47
2022/11/12 07:21:24;;;;;;;35.97;18.88;;;7.30;99.90;;;;;;5088751;28;20405;-50
2022/11/12 07:23:50;;;;;;;43.28;20.40;;;7.00;99.90;;;;;;5089007;28;20048;-47
2022/11/12 07:26:21;;;;;;;51.17;20.42;;;7.40;99.90;;;;;;5088766;28;20048;-47
2022/11/12 07:28:49;;;;;;;51.63;20.52;;;7.40;99.90;;;;;;5088707;28;20047;-46
2022/11/12 07:31:16;;;;;;;51.42;20.08;;;7.40;99.90;;;;;;5088636;28;20494;-47
2022/11/12 07:33:43;;;;;;;43.28;20.58;;;7.20;99.90;;;;;;5088476;28;20472;-49
2022/11/12 07:36:11;;;;;;;54.00;21.33;;;7.40;99.90;;;;;;5088447;28;20508;-47
2022/11/12 07:38:39;;;;;;;42.45;20.85;;;7.10;99.90;;;;;;5088637;28;20042;-48
2022/11/12 07:41:13;;;;;;;43.03;21.83;;;7.00;99.90;;;;;;5089451;28;20142;-46
2022/11/12 07:43:39;;;;;;;46.97;21.73;;;7.30;99.90;;;;;;5089404;28;20052;-51
2022/11/12 07:46:11;;;;;;;49.22;21.92;;;7.20;99.90;;;;;;5089099;28;20049;-50
2022/11/12 07:48:38;;;;;;;41.92;22.08;;;7.30;99.90;;;;;;5089357;28;20071;-49
2022/11/12 07:51:10;;;;;;;47.60;21.50;;;7.40;99.90;;;;;;5088869;28;20044;-49
2022/11/12 07:53:36;;;;;;;62.75;21.35;;;7.30;99.90;;;;;;5088874;28;20446;-50
2022/11/12 07:56:03;;;;;;;33.78;21.85;;;7.40;99.90;;;;;;5089034;28;20036;-50
2022/11/12 07:58:31;;;;;;;46.13;22.55;;;7.60;99.90;;;;;;5073405;28;20037;-48
2022/11/12 08:00:57;;;;;;;74.00;24.40;;;7.50;99.90;;;;;;5067163;28;20416;-51
2022/11/12 08:03:23;;;;;;;46.47;21.90;;;7.30;99.90;;;;;;5067211;28;20127;-50
2022/11/12 08:05:50;;;;;;;48.70;22.40;;;7.40;99.90;;;;;;5067949;28;20068;-48
2022/11/12 08:08:15;;;;;;;44.08;21.05;;;7.40;99.90;;;;;;5068468;28;20489;-50
2022/11/12 08:10:41;;;;;;;38.60;17.15;;;7.50;99.90;;;;;;5067989;28;20085;-47
2022/11/12 08:13:07;;;;;;;36.55;18.17;;;7.40;99.90;;;;;;5068387;28;20037;-49
2022/11/12 08:15:33;;;;;;;45.60;20.77;;;7.40;99.90;;;;;;5067907;28;20109;-48
2022/11/12 08:17:58;;;;;;;46.17;19.65;;;7.80;99.90;;;;;;5068263;28;20045;-50
2022/11/12 08:20:24;;;;;;;40.97;20.38;;;7.40;99.90;;;;;;5067833;28;20408;-51
2022/11/12 08:22:50;;;;;;;44.72;20.42;;;7.70;99.90;;;;;;5056011;28;20401;-53
2022/11/12 08:25:17;;;;;;;40.95;20.70;;;7.50;99.90;;;;;;5054893;28;20041;-52
2022/11/12 08:27:43;;;;;;;45.25;20.90;;;7.90;99.90;;;;;;5055147;28;20056;-51
2022/11/12 08:30:09;;;;;;;49.83;21.63;;;7.70;99.90;;;;;;5054348;28;20037;-52
2022/11/12 08:32:35;;;;;;;42.83;20.48;;;7.50;99.90;;;;;;5052603;28;20049;-49
2022/11/12 08:35:01;;;;;;;37.88;20.52;;;7.70;99.90;;;;;;5053921;28;20370;-48
2022/11/12 08:37:26;;;;;;;41.50;21.77;;;7.50;99.90;;;;;;5053745;28;20059;-49
2022/11/12 08:39:52;;;;;;;48.00;19.83;;;7.90;99.90;;;;;;5056036;28;20037;-47
2022/11/12 08:42:17;;;;;;;48.35;21.27;;;7.50;99.90;;;;;;5064189;28;20036;-51
2022/11/12 08:44:43;;;;;;;44.80;19.42;;;7.50;99.90;;;;;;5063949;28;20044;-51
2022/11/12 08:47:09;;;;;;;38.55;18.08;;;7.80;99.90;;;;;;5066180;28;20382;-51
2022/11/12 08:49:34;;;;;;;40.30;18.80;;;7.50;99.90;;;;;;5063723;28;20127;-51
2022/11/12 08:52:00;;;;;;;55.65;20.20;;;7.90;99.90;;;;;;5061268;28;20049;-46
2022/11/12 08:54:25;;;;;;;47.05;19.55;;;7.80;99.90;;;;;;5061498;28;20090;-47
2022/11/12 08:56:51;;;;;;;49.60;19.77;;;7.60;99.90;;;;;;5060248;28;20048;-48
2022/11/12 08:59:17;;;;;;;44.22;19.30;;;8.00;99.90;;;;;;5062899;28;20044;-47
2022/11/12 09:01:42;;;;;;;45.15;19.88;;;7.80;99.90;;;;;;5057192;28;20428;-47
2022/11/12 09:04:08;;;;;;;45.15;19.20;;;7.70;99.90;;;;;;5063069;28;20068;-47
2022/11/12 09:06:34;;;;;;;57.40;20.70;;;8.10;99.90;;;;;;5062454;28;20139;-48
2022/11/12 09:08:59;;;;;;;52.78;20.58;;;7.90;99.90;;;;;;5056093;28;20443;-48
2022/11/12 09:11:25;;;;;;;52.10;20.90;;;7.90;99.90;;;;;;5052742;28;20505;-48
2022/11/12 09:13:54;;;;;;;63.80;20.95;;;8.00;99.90;;;;;;5051988;28;20049;-50
2022/11/12 09:16:20;;;;;;;58.38;21.95;;;8.00;99.90;;;;;;5051845;28;20107;-49
2022/11/12 09:18:46;;;;;;;55.70;22.48;;;8.00;99.90;;;;;;5052982;28;20041;-48
2022/11/12 09:21:13;;;;;;;68.03;23.52;;;8.40;99.90;;;;;;5052931;28;20052;-50
2022/11/12 09:23:39;;;;;;;63.15;22.35;;;8.00;99.90;;;;;;5052895;28;20041;-48
2022/11/12 09:26:05;;;;;;;62.97;23.25;;;7.90;99.90;;;;;;5053119;28;20116;-50
2022/11/12 09:28:31;;;;;;;69.45;26.13;;;8.40;99.90;;;;;;5052593;28;20128;-47
2022/11/12 09:30:57;;;;;;;70.47;25.83;;;8.30;99.90;;;;;;5052344;28;20045;-47
2022/11/12 09:33:26;;;;;;;69.22;24.58;;;8.40;99.90;;;;;;5051439;28;20405;-48
2022/11/12 09:35:52;;;;;;;76.00;24.48;;;8.20;99.90;;;;;;5052531;28;20045;-52
2022/11/12 09:38:19;;;;;;;82.57;24.10;;;8.30;99.90;;;;;;5052231;28;20045;-49
2022/11/12 09:40:50;;;;;;;68.78;24.35;;;8.40;99.90;;;;;;5052154;28;20059;-47
2022/11/12 09:43:19;;;;;;;69.82;23.70;;;8.60;99.90;;;;;;5052620;28;20091;-49
2022/11/12 09:45:46;;;;;;;64.40;25.67;;;8.30;99.90;;;;;;5052664;28;20102;-48
2022/11/12 09:48:18;;;;;;;65.30;24.27;;;8.20;99.90;;;;;;5052487;28;20055;-49
2022/11/12 09:50:56;;;;;;;72.57;25.25;;;8.70;99.90;;;;;;5052377;28;20068;-48
2022/11/12 09:53:38;;;;;;;69.05;24.35;;;8.40;99.90;;;;;;5052378;28;20119;-48
2022/11/12 09:56:10;;;;;;;57.63;24.50;;;8.20;99.90;;;;;;5052321;28;20102;-48
2022/11/12 09:58:36;;;;;;;;;;;8.40;99.90;;;;;;5068385;28;20055;-47
2022/11/12 10:01:23;;;;;;;60.08;24.52;;;8.40;99.90;;;;;;5071675;28;20380;-48
2022/11/12 10:04:07;;;;;;;59.42;24.30;;;8.60;99.90;;;;;;5072005;28;20108;-49
2022/11/12 10:06:46;;;;;;;60.00;24.50;;;8.70;99.90;;;;;;5072021;28;20093;-51
2022/11/12 10:09:44;;;;;;;60.00;23.38;;;8.60;99.90;;;;;;5071950;28;20052;-50
2022/11/12 10:12:31;;;;;;;54.70;22.83;;;8.40;99.90;;;;;;5055350;28;20056;-50
2022/11/12 10:18:33;;;;;;;50.88;23.45;;;8.50;99.90;;;;;;5072511;28;20051;-51
2022/11/12 10:21:36;;;;;;;56.30;25.02;;;8.60;99.90;;;;;;5072883;28;20036;-49
2022/11/12 10:24:06;;;;;;;56.38;24.27;;;8.50;99.90;;;;;;5072725;28;20033;-47
2022/11/12 10:26:33;;;;;;;50.80;24.67;;;8.50;99.90;;;;;;5072736;28;20064;-45
2022/11/12 10:29:16;;;;;;;52.30;23.48;;;8.30;99.90;;;;;;5072467;28;20028;-49
2022/11/12 10:31:42;;;;;;;64.30;25.77;;;8.70;99.90;;;;;;5072673;28;20044;-46
2022/11/12 10:34:20;;;;;;;65.00;25.75;;;8.60;99.90;;;;;;5072524;28;20036;-47
2022/11/12 10:36:56;;;;;;;71.80;27.15;;;8.40;99.90;;;;;;5072381;28;20036;-46
2022/11/12 10:39:36;;;;;;;66.80;27.38;;;8.40;99.90;;;;;;5072330;28;20044;-60
2022/11/12 10:42:19;;;;;;;56.35;25.75;;;8.40;99.90;;;;;;5072555;28;20071;-60
2022/11/12 10:44:45;;;;;;;58.53;26.42;;;8.70;99.90;;;;;;5071099;28;20090;-60
2022/11/12 10:47:41;;;;;;;70.13;27.92;;;8.30;99.90;;;;;;5071193;28;20512;-60
2022/11/12 10:50:07;;;;;;;72.80;25.90;;;8.70;99.90;;;;;;5072206;28;20048;-60
2022/11/12 10:52:33;;;;;;;67.20;27.95;;;8.20;99.90;;;;;;5072162;28;20144;-61
2022/11/12 10:55:26;;;;;;;53.67;25.88;;;8.70;99.90;;;;;;5072477;28;20051;-60
2022/11/12 10:58:10;;;;;;;61.80;27.70;;;8.50;99.90;;;;;;5062056;28;20032;-60
2022/11/12 11:00:50;;;;;;;57.47;27.98;;;8.40;99.90;;;;;;5052175;28;20393;-61
2022/11/12 11:03:23;;;;;;;57.13;27.88;;;8.70;99.90;;;;;;5052202;28;20441;-60
2022/11/12 11:05:51;;;;;;;59.72;28.17;;;8.80;99.90;;;;;;5052093;28;20049;-61
2022/11/12 11:08:32;;;;;;;68.25;30.38;;;8.80;99.90;;;;;;5052090;28;20038;-61
2022/11/12 11:11:17;;;;;;;57.45;30.25;;;8.30;99.90;;;;;;5051952;28;20448;-60
2022/11/12 11:13:44;;;;;;;56.33;30.40;;;8.80;99.90;;;;;;5052077;28;20037;-60
2022/11/12 11:16:22;;;;;;;69.50;31.33;;;8.60;99.90;;;;;;5052155;28;20396;-60
2022/11/12 11:19:01;;;;;;;59.17;30.08;;;8.50;99.90;;;;;;5051644;28;20106;-60
2022/11/12 11:21:49;;;;;;;60.35;28.77;;;8.90;99.90;;;;;;5051902;28;20106;-60
2022/11/12 11:24:30;;;;;;;56.50;28.65;;;8.80;99.90;;;;;;5051970;28;20382;-62
2022/11/12 11:26:58;;;;;;;61.70;30.25;;;8.60;99.90;;;;;;5051927;28;20040;-60
2022/11/12 11:29:39;;;;;;;53.13;29.52;;;8.80;99.90;;;;;;5051592;28;20489;-61
2022/11/12 11:32:10;;;;;;;59.50;31.80;;;8.40;99.90;;;;;;5050392;28;20110;-61
2022/11/12 11:35:05;;;;;;;57.33;30.88;;;8.50;99.90;;;;;;5062693;28;20076;-61
2022/11/12 11:37:40;;;;;;;52.58;28.85;;;8.90;99.90;;;;;;5071288;28;20037;-61
2022/11/12 11:40:34;;;;;;;53.67;29.25;;;9.00;99.90;;;;;;5062140;28;20047;-60
2022/11/12 11:43:18;;;;;;;54.00;29.55;;;8.80;99.90;;;;;;5061809;28;20051;-60
2022/11/12 11:46:06;;;;;;;56.95;29.35;;;8.70;99.90;;;;;;5062281;28;20036;-62
2022/11/12 11:48:56;;;;;;;53.58;29.40;;;8.80;99.90;;;;;;5061670;28;20044;-60
2022/11/12 11:51:34;;;;;;;57.63;31.05;;;9.00;99.90;;;;;;5061826;28;20055;-60
2022/11/12 11:54:25;;;;;;;52.83;28.85;;;9.20;99.90;;;;;;5061627;28;20447;-60
2022/11/12 11:56:56;;;;;;;57.17;31.33;;;8.80;99.90;;;;;;5061022;28;20037;-60
2022/11/12 11:59:30;;;;;;;52.85;29.23;;;8.80;99.90;;;;;;5063643;28;20279;-60
2022/11/12 12:02:20;;;;;;;49.78;30.20;;;9.00;99.90;;;;;;5065926;28;20079;-61
2022/11/12 12:05:17;;;;;;;52.58;30.23;;;8.90;99.90;;;;;;5065184;28;20041;-61
2022/11/12 12:08:18;;;;;;;53.92;30.35;;;9.10;99.90;;;;;;5064810;28;20072;-60
2022/11/12 12:10:59;;;;;;;54.03;31.75;;;9.20;99.90;;;;;;5062652;28;20061;-61
2022/11/12 12:13:50;;;;;;;53.00;30.55;;;8.90;99.90;;;;;;5060264;28;20055;-61
2022/11/12 12:16:26;;;;;;;53.97;31.45;;;9.00;99.90;;;;;;5062355;28;20029;-60
2022/11/12 12:19:05;;;;;;;60.00;34.00;;;8.90;99.90;;;;;;5072480;28;20120;-60
2022/11/12 12:21:33;;;;;;;67.85;40.03;;;9.20;99.90;;;;;;5067082;28;20119;-61
2022/11/12 12:24:12;;;;;;;58.05;32.20;;;8.90;99.90;;;;;;5066741;28;20083;-58
2022/11/12 12:26:46;;;;;;;54.83;32.28;;;8.80;99.90;;;;;;5075051;28;20047;-59
2022/11/12 12:29:30;;;;;;;51.00;31.25;;;9.00;99.90;;;;;;5075015;28;20037;-59
2022/11/12 12:32:00;;;;;;;56.80;32.05;;;9.10;99.90;;;;;;5073524;28;20087;-60
2022/11/12 12:34:37;;;;;;;50.90;30.58;;;9.10;99.90;;;;;;5074759;28;20044;-60
2022/11/12 12:37:29;;;;;;;49.35;31.38;;;9.20;99.90;;;;;;5075196;28;20040;-60
2022/11/12 12:40:14;;;;;;;51.35;30.88;;;9.30;99.90;;;;;;5075234;28;20055;-60
2022/11/12 12:42:52;;;;;;;53.35;33.45;;;9.20;99.90;;;;;;5074703;28;20088;-60
2022/11/12 12:45:32;;;;;;;51.22;31.25;;;9.00;99.90;;;;;;5074792;28;20037;-61
2022/11/12 12:48:00;;;;;;;50.67;32.33;;;9.00;99.90;;;;;;5074458;28;20040;-60
2022/11/12 12:50:26;;;;;;;49.08;31.80;;;9.20;99.90;;;;;;5074496;28;20381;-60
2022/11/12 12:53:02;;;;;;;50.35;31.70;;;9.40;99.90;;;;;;5074345;28;20040;-59
2022/11/12 12:55:51;;;;;;;51.45;32.85;;;9.40;99.90;;;;;;5074436;28;20435;-59
2022/11/12 12:58:26;;;;;;;51.47;32.85;;;9.20;99.90;;;;;;5074327;28;20524;-60
2022/11/12 13:00:55;;;;;;;50.22;33.40;;;9.30;99.90;;;;;;5074351;28;20036;-59
2022/11/12 13:03:56;;;;;;;52.67;32.97;;;9.30;99.90;;;;;;5074159;28;20498;-59
2022/11/12 13:06:23;;;;;;;48.92;32.22;;;9.30;99.90;;;;;;5073166;28;20119;-60
2022/11/12 13:08:55;;;;;;;54.75;32.28;;;9.60;99.90;;;;;;5074072;28;20032;-60
2022/11/12 13:14:35;;;;;;;49.78;31.42;;;9.40;99.90;;;;;;5074166;28;20178;-60
2022/11/12 13:17:04;;;;;;;46.53;30.38;;;9.50;99.90;;;;;;5073771;28;20087;-60